Time;durP1;ratioP1;P1;durP2;ratioP2;P2;SDS_P1;SDS_P2;PMS_P1;PMS_P2;Temp;Humidity;BMP_temperature;BMP_pressure;BME280_temperature;BME280_humidity;BME280_pressure;Samples;Min_cycle;Max_cycle;Signal;HPM_P1;HPM_P2
2022/08/23 00:01:14;;;;;;;7.40;2.65;;;;;;;;;;5074948;28;20114;-75
2022/08/23 00:03:44;;;;;;;10.02;2.70;;;;;;;;;;5071352;28;20039;-76
2022/08/23 00:06:10;;;;;;;8.13;2.50;;;;;;;;;;5089588;22;20046;-72
2022/08/23 00:08:36;;;;;;;8.85;2.53;;;;;;;;;;5050881;28;20047;-72
2022/08/23 00:11:03;;;;;;;7.10;2.20;;;;;;;;;;5051557;28;20083;-72
2022/08/23 00:13:30;;;;;;;9.93;2.72;;;;;;;;;;5051114;28;20036;-71
2022/08/23 00:15:57;;;;;;;11.07;2.92;;;;;;;;;;5050894;28;20029;-72
2022/08/23 00:18:23;;;;;;;12.60;2.40;;;;;;;;;;5035254;28;20029;-71
2022/08/23 00:20:49;;;;;;;8.93;2.67;;;;;;;;;;5054428;28;20033;-71
2022/08/23 00:23:15;;;;;;;9.50;2.65;;;;;;;;;;5053059;28;20033;-70
2022/08/23 00:25:41;;;;;;;6.80;2.72;;;;;;;;;;5071074;28;20056;-71
2022/08/23 00:28:08;;;;;;;7.95;2.38;;;;;;;;;;5068544;28;20092;-71
2022/08/23 00:30:34;;;;;;;10.15;2.15;;;;;;;;;;5051200;28;20013;-71
2022/08/23 00:33:00;;;;;;;9.07;2.72;;;;;;;;;;5050324;28;20032;-70
2022/08/23 00:35:26;;;;;;;9.18;2.30;;;;;;;;;;5050193;28;20386;-70
2022/08/23 00:37:53;;;;;;;9.25;2.42;;;;;;;;;;5050434;28;20025;-70
2022/08/23 00:40:19;;;;;;;10.40;2.67;;;;;;;;;;5050998;28;20505;-71
2022/08/23 00:48:53;;;;;;;10.07;2.80;;;;;;;;;;5050211;28;20082;-70
2022/08/23 00:51:34;;;;;;;10.55;2.58;;;;;;;;;;5050091;28;20021;-70
2022/08/23 00:54:00;;;;;;;9.20;2.63;;;;;;;;;;5050345;28;20033;-71
2022/08/23 00:56:29;;;;;;;8.85;2.55;;;;;;;;;;5049875;28;20504;-71
2022/08/23 00:58:55;;;;;;;11.57;2.83;;;;;;;;;;5050354;28;20104;-70
2022/08/23 01:01:21;;;;;;;6.72;2.40;;;;;;;;;;5050472;28;20021;-71
2022/08/23 01:03:50;;;;;;;8.13;2.60;;;;;;;;;;5050249;28;20489;-71
2022/08/23 01:06:21;;;;;;;8.77;2.45;;;;;;;;;;5052372;28;20064;-71
2022/08/23 01:08:49;;;;;;;13.63;2.90;;;;;;;;;;5053733;28;20048;-71
2022/08/23 01:11:35;;;;;;;9.70;2.58;;;;;;;;;;5053777;28;20025;-71
2022/08/23 01:14:10;;;;;;;7.53;2.85;;;;;;;;;;5053443;28;20444;-71
2022/08/23 01:16:39;;;;;;;8.38;2.70;;;;;;;;;;5035514;28;20489;-71
2022/08/23 01:19:12;;;;;;;11.48;2.42;;;;;;;;;;5053500;28;20025;-71
2022/08/23 01:21:45;;;;;;;9.05;2.58;;;;;;;;;;5053671;28;20043;-71
2022/08/23 01:24:11;;;;;;;11.68;2.35;;;;;;;;;;5053627;28;20021;-71
2022/08/23 01:26:37;;;;;;;11.25;2.85;;;;;;;;;;5053209;28;20029;-71
2022/08/23 01:29:05;;;;;;;7.68;2.63;;;;;;;;;;5053530;28;20478;-71
2022/08/23 01:31:31;;;;;;;17.05;2.78;;;;;;;;;;5053429;28;20029;-70
2022/08/23 01:33:58;;;;;;;5.22;2.35;;;;;;;;;;5035333;28;20036;-71
2022/08/23 01:36:24;;;;;;;9.45;2.70;;;;;;;;;;5053168;28;20033;-71
2022/08/23 01:38:50;;;;;;;8.18;2.80;;;;;;;;;;5053303;28;20485;-71
2022/08/23 01:41:16;;;;;;;9.10;2.63;;;;;;;;;;5035434;28;20144;-73
2022/08/23 01:43:42;;;;;;;11.65;3.33;;;;;;;;;;5053763;28;20025;-71
2022/08/23 01:46:16;;;;;;;9.88;2.75;;;;;;;;;;5054770;28;20375;-70
2022/08/23 01:48:44;;;;;;;13.48;2.55;;;;;;;;;;5054400;28;20028;-71
2022/08/23 01:51:10;;;;;;;8.68;2.42;;;;;;;;;;5053240;28;20024;-71
2022/08/23 01:53:36;;;;;;;8.30;2.72;;;;;;;;;;5052185;28;20026;-71
2022/08/23 01:56:02;;;;;;;7.22;2.63;;;;;;;;;;5053400;28;20128;-71
2022/08/23 01:58:30;;;;;;;10.50;2.70;;;;;;;;;;5053485;28;20554;-72
2022/08/23 02:00:56;;;;;;;7.28;2.53;;;;;;;;;;5053407;28;20385;-72
2022/08/23 02:03:22;;;;;;;9.18;2.67;;;;;;;;;;5015959;28;20083;-72
2022/08/23 02:05:48;;;;;;;9.00;2.65;;;;;;;;;;5034426;28;20025;-71
2022/08/23 02:10:59;;;;;;;7.90;2.80;;;;;;;;;;5033016;28;20501;-71
2022/08/23 02:13:25;;;;;;;12.60;2.80;;;;;;;;;;5033130;28;20413;-72
2022/08/23 02:15:51;;;;;;;14.88;3.28;;;;;;;;;;5032617;28;20029;-71
2022/08/23 02:18:19;;;;;;;7.47;2.55;;;;;;;;;;5034482;28;20027;-71
2022/08/23 02:20:49;;;;;;;10.73;3.30;;;;;;;;;;5033927;28;20030;-71
2022/08/23 02:23:15;;;;;;;10.32;3.00;;;;;;;;;;5033482;28;20029;-71
2022/08/23 02:25:41;;;;;;;8.77;2.70;;;;;;;;;;5032581;28;20730;-71
2022/08/23 02:28:07;;;;;;;10.63;2.88;;;;;;;;;;5033996;28;20028;-72
2022/08/23 02:30:33;;;;;;;11.85;2.70;;;;;;;;;;5034326;28;20386;-71
2022/08/23 02:32:59;;;;;;;12.45;2.90;;;;;;;;;;5028793;28;20017;-71
2022/08/23 02:35:25;;;;;;;14.65;2.92;;;;;;;;;;5044859;28;20034;-71
2022/08/23 02:37:51;;;;;;;9.13;2.80;;;;;;;;;;5035569;28;20051;-71
2022/08/23 02:40:18;;;;;;;11.93;3.00;;;;;;;;;;5035419;28;20045;-71
2022/08/23 02:42:44;;;;;;;10.10;2.92;;;;;;;;;;5033615;28;20059;-71
2022/08/23 02:45:10;;;;;;;8.98;2.65;;;;;;;;;;5036743;28;20439;-71
2022/08/23 02:47:36;;;;;;;10.00;2.88;;;;;;;;;;5052043;28;20106;-71
2022/08/23 02:50:06;;;;;;;11.88;3.10;;;;;;;;;;5052556;28;20112;-71
2022/08/23 02:52:32;;;;;;;10.23;3.28;;;;;;;;;;5055024;28;20096;-71
2022/08/23 02:54:58;;;;;;;11.30;3.17;;;;;;;;;;5051706;28;20043;-71
2022/08/23 02:57:24;;;;;;;9.35;2.67;;;;;;;;;;5051424;28;20017;-71
2022/08/23 02:59:51;;;;;;;10.55;3.20;;;;;;;;;;5051657;28;20028;-71
2022/08/23 03:02:17;;;;;;;8.30;2.75;;;;;;;;;;5051468;28;20021;-71
2022/08/23 03:04:43;;;;;;;10.70;3.03;;;;;;;;;;5051252;28;20599;-71
2022/08/23 03:07:09;;;;;;;12.30;3.22;;;;;;;;;;5048525;28;20471;-71
2022/08/23 03:09:35;;;;;;;8.48;3.00;;;;;;;;;;5032845;28;20029;-70
2022/08/23 03:12:01;;;;;;;10.60;3.22;;;;;;;;;;5032830;28;20087;-71
2022/08/23 03:14:27;;;;;;;10.32;3.30;;;;;;;;;;5034698;28;20096;-71
2022/08/23 03:16:53;;;;;;;12.05;3.45;;;;;;;;;;5032850;28;20051;-71
2022/08/23 03:19:20;;;;;;;13.10;3.63;;;;;;;;;;5032694;28;20026;-71
2022/08/23 03:21:47;;;;;;;6.38;2.80;;;;;;;;;;5042115;28;20021;-72
2022/08/23 03:24:13;;;;;;;8.23;3.42;;;;;;;;;;5032506;28;20475;-71
2022/08/23 03:26:43;;;;;;;8.68;3.58;;;;;;;;;;5014240;28;20038;-71
2022/08/23 03:29:09;;;;;;;10.15;3.60;;;;;;;;;;5031966;28;20053;-72
2022/08/23 03:31:35;;;;;;;10.60;3.85;;;;;;;;;;5032805;28;20053;-70
2022/08/23 03:34:02;;;;;;;10.30;3.28;;;;;;;;;;5032265;28;20029;-71
2022/08/23 03:36:28;;;;;;;11.35;3.17;;;;;;;;;;5031849;28;20059;-70
2022/08/23 03:38:54;;;;;;;10.90;3.75;;;;;;;;;;5031954;28;20107;-71
2022/08/23 03:41:20;;;;;;;16.35;4.07;;;;;;;;;;5032164;28;20131;-73
2022/08/23 03:43:47;;;;;;;11.32;3.70;;;;;;;;;;5032232;28;20049;-72
2022/08/23 03:46:22;;;;;;;11.10;3.33;;;;;;;;;;5032042;28;20100;-70
2022/08/23 03:48:59;;;;;;;9.43;3.10;;;;;;;;;;5033054;28;20029;-72
2022/08/23 03:51:26;;;;;;;9.75;3.25;;;;;;;;;;5032536;28;20083;-71
2022/08/23 03:53:52;;;;;;;15.73;6.43;;;;;;;;;;5032261;28;20096;-72
2022/08/23 03:56:25;;;;;;;16.42;7.10;;;;;;;;;;5032819;28;20057;-70
2022/08/23 03:58:51;;;;;;;18.00;6.32;;;;;;;;;;5014210;28;20031;-71
2022/08/23 04:01:17;;;;;;;13.27;4.60;;;;;;;;;;5032113;28;20021;-71
2022/08/23 04:03:43;;;;;;;13.10;4.60;;;;;;;;;;5032110;28;20029;-71
2022/08/23 04:06:10;;;;;;;15.25;5.18;;;;;;;;;;5031921;28;20079;-71
2022/08/23 04:08:36;;;;;;;13.57;4.13;;;;;;;;;;5031816;28;20017;-71
2022/08/23 04:11:03;;;;;;;13.68;3.45;;;;;;;;;;5036864;28;20025;-70
2022/08/23 04:13:29;;;;;;;15.98;4.47;;;;;;;;;;5032142;28;20025;-70
2022/08/23 04:15:55;;;;;;;14.13;4.65;;;;;;;;;;5033379;28;20040;-71
2022/08/23 04:18:22;;;;;;;15.60;4.13;;;;;;;;;;5035984;28;20052;-69
2022/08/23 04:20:48;;;;;;;15.00;4.70;;;;;;;;;;5031648;28;20021;-70
2022/08/23 04:23:14;;;;;;;13.00;5.22;;;;;;;;;;5031707;28;20041;-70
2022/08/23 04:25:44;;;;;;;9.82;5.07;;;;;;;;;;5031445;28;20039;-70
2022/08/23 04:28:10;;;;;;;10.38;3.58;;;;;;;;;;5031494;28;20026;-70
2022/08/23 04:30:36;;;;;;;12.13;3.60;;;;;;;;;;5032523;28;20018;-71
2022/08/23 04:33:03;;;;;;;10.52;3.45;;;;;;;;;;5036742;28;20429;-73
2022/08/23 04:35:29;;;;;;;13.25;3.90;;;;;;;;;;5036487;28;20025;-73
2022/08/23 04:37:55;;;;;;;13.52;4.70;;;;;;;;;;5037708;28;20060;-73
2022/08/23 04:43:07;;;;;;;11.88;3.92;;;;;;;;;;5035700;28;20469;-71
2022/08/23 04:45:33;;;;;;;14.10;4.45;;;;;;;;;;5035446;28;20028;-72
2022/08/23 04:47:59;;;;;;;10.20;3.63;;;;;;;;;;5037947;28;20034;-72
2022/08/23 04:50:25;;;;;;;9.30;3.28;;;;;;;;;;5039389;28;20022;-72
2022/08/23 04:52:52;;;;;;;12.23;3.83;;;;;;;;;;5018219;28;20061;-73
2022/08/23 04:55:18;;;;;;;11.38;3.58;;;;;;;;;;5021190;28;20036;-70
2022/08/23 04:57:44;;;;;;;9.35;3.65;;;;;;;;;;5037111;28;20438;-73
2022/08/23 05:00:12;;;;;;;9.75;4.03;;;;;;;;;;5036400;28;20067;-72
2022/08/23 05:02:38;;;;;;;8.18;3.45;;;;;;;;;;5037374;28;20109;-70
2022/08/23 05:05:04;;;;;;;10.25;3.70;;;;;;;;;;5038287;28;20049;-72
2022/08/23 05:07:30;;;;;;;10.38;3.53;;;;;;;;;;5041347;28;20086;-70
2022/08/23 05:09:56;;;;;;;16.08;4.07;;;;;;;;;;5043057;28;20033;-73
2022/08/23 05:12:23;;;;;;;11.85;4.68;;;;;;;;;;5022438;28;20030;-72
2022/08/23 05:14:48;;;;;;;12.73;3.80;;;;;;;;;;5042234;28;20064;-71
2022/08/23 05:17:14;;;;;;;13.38;3.92;;;;;;;;;;5038825;28;20033;-73
2022/08/23 05:19:40;;;;;;;17.63;4.13;;;;;;;;;;5036412;28;20032;-71
2022/08/23 05:22:06;;;;;;;10.10;3.42;;;;;;;;;;5038986;28;20177;-73
2022/08/23 05:24:32;;;;;;;12.63;3.60;;;;;;;;;;5038953;28;20031;-71
2022/08/23 05:26:58;;;;;;;14.63;3.90;;;;;;;;;;5037991;28;20025;-74
2022/08/23 05:29:24;;;;;;;11.77;3.55;;;;;;;;;;5021494;28;20025;-72
2022/08/23 05:31:50;;;;;;;15.98;4.20;;;;;;;;;;5037905;28;20018;-74
2022/08/23 05:34:18;;;;;;;18.73;4.65;;;;;;;;;;5021563;28;20032;-72
2022/08/23 05:36:44;;;;;;;21.50;4.00;;;;;;;;;;5043221;28;20156;-73
2022/08/23 05:39:10;;;;;;;12.38;4.10;;;;;;;;;;5045986;28;20067;-73
2022/08/23 05:41:38;;;;;;;12.18;5.47;;;;;;;;;;5036057;28;20032;-76
2022/08/23 05:44:04;;;;;;;16.38;4.18;;;;;;;;;;5019718;28;20031;-75
2022/08/23 05:46:30;;;;;;;16.52;4.20;;;;;;;;;;5037397;28;20026;-75
2022/08/23 05:48:56;;;;;;;14.75;3.75;;;;;;;;;;5018337;28;20334;-72
2022/08/23 05:51:27;;;;;;;12.93;4.32;;;;;;;;;;5034563;28;20339;-73
2022/08/23 05:53:54;;;;;;;15.82;4.10;;;;;;;;;;5035158;28;20029;-74
2022/08/23 05:56:25;;;;;;;11.35;4.03;;;;;;;;;;5044149;28;20040;-70
2022/08/23 05:58:52;;;;;;;13.93;3.97;;;;;;;;;;5035258;28;20025;-72
2022/08/23 06:01:18;;;;;;;11.20;3.85;;;;;;;;;;5039474;28;20041;-72
2022/08/23 06:03:44;;;;;;;17.85;4.13;;;;;;;;;;5035576;28;20049;-73
2022/08/23 06:06:14;;;;;;;12.20;3.97;;;;;;;;;;5038019;28;20037;-73
2022/08/23 06:08:41;;;;;;;10.38;3.88;;;;;;;;;;5036914;28;20029;-74
2022/08/23 06:11:12;;;;;;;12.25;3.50;;;;;;;;;;5036661;28;20080;-75
2022/08/23 06:13:39;;;;;;;17.33;3.85;;;;;;;;;;5037785;28;20025;-73
2022/08/23 06:16:06;;;;;;;12.45;4.28;;;;;;;;;;5039345;28;20077;-73
2022/08/23 06:18:32;;;;;;;14.40;4.40;;;;;;;;;;5020876;28;20040;-72
2022/08/23 06:21:06;;;;;;;13.48;4.07;;;;;;;;;;5034888;28;20093;-72
2022/08/23 06:23:32;;;;;;;12.77;3.88;;;;;;;;;;5034470;28;20649;-71
2022/08/23 06:26:00;;;;;;;13.57;3.97;;;;;;;;;;5033102;28;20129;-72
2022/08/23 06:28:26;;;;;;;21.52;4.63;;;;;;;;;;5033468;28;20032;-73
2022/08/23 06:30:58;;;;;;;15.02;4.35;;;;;;;;;;5033831;28;20055;-72
2022/08/23 06:33:25;;;;;;;15.10;4.50;;;;;;;;;;5033181;28;20029;-72
2022/08/23 06:36:00;;;;;;;10.15;4.07;;;;;;;;;;5032824;28;20022;-71
2022/08/23 06:38:26;;;;;;;;;;;;;;;;;;5015526;28;20042;-70
2022/08/23 06:40:52;;;;;;;12.80;4.00;;;;;;;;;;5033074;28;20014;-70
2022/08/23 06:43:18;;;;;;;15.00;4.10;;;;;;;;;;5015119;28;20030;-71
2022/08/23 06:45:44;;;;;;;11.57;3.60;;;;;;;;;;5032801;28;20030;-71
2022/08/23 06:48:10;;;;;;;13.23;3.83;;;;;;;;;;5033004;28;20028;-71
2022/08/23 06:50:36;;;;;;;11.65;3.53;;;;;;;;;;5033014;28;20018;-71
2022/08/23 06:53:02;;;;;;;13.80;3.90;;;;;;;;;;5033712;28;20082;-72
2022/08/23 06:55:28;;;;;;;14.35;3.70;;;;;;;;;;5033405;28;20029;-74
2022/08/23 06:57:54;;;;;;;17.38;4.30;;;;;;;;;;5034345;28;20026;-74
2022/08/23 07:00:20;;;;;;;13.90;4.70;;;;;;;;;;5036945;28;20022;-72
2022/08/23 07:02:47;;;;;;;10.50;4.05;;;;;;;;;;5018298;28;20057;-72
2022/08/23 07:05:13;;;;;;;15.63;4.20;;;;;;;;;;5033355;28;20479;-74
2022/08/23 07:07:39;;;;;;;11.73;3.83;;;;;;;;;;5036198;28;20033;-74
2022/08/23 07:10:05;;;;;;;12.73;3.55;;;;;;;;;;5033333;28;20026;-74
2022/08/23 07:12:31;;;;;;;15.55;4.10;;;;;;;;;;5034973;28;20041;-73
2022/08/23 07:14:57;;;;;;;15.48;3.80;;;;;;;;;;5033908;28;20700;-74
2022/08/23 07:17:24;;;;;;;10.68;3.85;;;;;;;;;;5034812;28;20142;-74
2022/08/23 07:19:50;;;;;;;15.52;5.57;;;;;;;;;;5016607;28;20068;-73
2022/08/23 07:22:19;;;;;;;10.90;4.75;;;;;;;;;;5032890;28;20029;-73
2022/08/23 07:24:45;;;;;;;23.88;4.28;;;;;;;;;;5016213;28;20079;-73
2022/08/23 07:27:11;;;;;;;11.30;4.13;;;;;;;;;;5033339;28;20029;-72
2022/08/23 07:29:38;;;;;;;12.75;3.63;;;;;;;;;;5041302;28;20540;-73
2022/08/23 07:32:04;;;;;;;13.95;4.85;;;;;;;;;;5039690;28;20081;-72
2022/08/23 07:34:30;;;;;;;14.70;3.50;;;;;;;;;;5038119;28;20017;-75
2022/08/23 07:36:56;;;;;;;10.32;4.38;;;;;;;;;;5035998;28;20033;-73
2022/08/23 07:39:25;;;;;;;10.77;3.45;;;;;;;;;;5035324;28;20061;-76
2022/08/23 07:41:54;;;;;;;12.68;3.40;;;;;;;;;;5019023;28;20036;-72
2022/08/23 07:44:20;;;;;;;15.00;4.95;;;;;;;;;;5033082;28;20026;-73
2022/08/23 07:46:46;;;;;;;22.25;6.57;;;;;;;;;;5033869;28;20108;-73
2022/08/23 07:49:13;;;;;;;9.55;3.40;;;;;;;;;;5034221;28;20623;-74
2022/08/23 07:51:39;;;;;;;12.20;4.25;;;;;;;;;;5034473;28;20025;-74
2022/08/23 07:54:07;;;;;;;11.25;3.30;;;;;;;;;;5033511;28;20083;-72
2022/08/23 07:56:34;;;;;;;7.43;2.90;;;;;;;;;;5016604;28;20033;-73
2022/08/23 07:59:00;;;;;;;17.05;3.78;;;;;;;;;;5033169;28;20426;-73
2022/08/23 08:01:27;;;;;;;10.50;3.08;;;;;;;;;;5033454;28;20394;-74
2022/08/23 08:03:54;;;;;;;10.32;3.00;;;;;;;;;;5016895;28;20022;-71
2022/08/23 08:06:22;;;;;;;11.45;3.25;;;;;;;;;;5031979;28;20044;-72
2022/08/23 08:08:48;;;;;;;17.88;2.78;;;;;;;;;;5033275;28;20052;-76
2022/08/23 08:11:16;;;;;;;11.68;2.85;;;;;;;;;;5032963;28;20025;-72
2022/08/23 08:13:43;;;;;;;12.30;3.40;;;;;;;;;;5032425;28;20018;-73
2022/08/23 08:16:09;;;;;;;10.73;3.05;;;;;;;;;;5037143;28;20395;-72
2022/08/23 08:18:36;;;;;;;14.57;2.58;;;;;;;;;;5038957;28;20463;-72
2022/08/23 08:21:02;;;;;;;16.10;3.03;;;;;;;;;;5039484;28;20059;-71
2022/08/23 08:23:28;;;;;;;17.00;3.20;;;;;;;;;;5041998;28;20039;-74
2022/08/23 08:26:01;;;;;;;17.42;3.17;;;;;;;;;;5039201;28;20033;-72
2022/08/23 08:28:27;;;;;;;7.10;3.17;;;;;;;;;;5041263;28;20072;-72
2022/08/23 08:30:53;;;;;;;11.32;2.85;;;;;;;;;;5020903;28;20024;-72
2022/08/23 08:33:19;;;;;;;16.35;3.80;;;;;;;;;;5038724;28;20029;-72
2022/08/23 08:35:48;;;;;;;8.68;2.22;;;;;;;;;;5038414;28;20363;-73
2022/08/23 08:38:14;;;;;;;7.55;2.50;;;;;;;;;;5038923;28;20033;-72
2022/08/23 08:40:40;;;;;;;9.05;2.63;;;;;;;;;;5039673;28;20032;-72
2022/08/23 08:43:10;;;;;;;11.80;2.80;;;;;;;;;;5042178;28;20030;-73
2022/08/23 08:45:49;;;;;;;9.30;2.72;;;;;;;;;;5041134;28;20032;-73
2022/08/23 08:48:15;;;;;;;8.77;2.60;;;;;;;;;;5040773;28;20433;-71
2022/08/23 08:50:44;;;;;;;6.60;2.03;;;;;;;;;;5039223;28;20079;-73
2022/08/23 08:53:10;;;;;;;10.88;2.63;;;;;;;;;;5039016;28;20022;-72
2022/08/23 08:55:38;;;;;;;15.63;3.00;;;;;;;;;;5038337;28;20072;-71
2022/08/23 08:58:05;;;;;;;7.90;2.65;;;;;;;;;;5041378;28;20057;-72
2022/08/23 09:00:33;;;;;;;11.18;2.63;;;;;;;;;;5038490;28;20079;-72
2022/08/23 09:03:01;;;;;;;6.15;2.33;;;;;;;;;;5038470;28;20033;-72
2022/08/23 09:05:31;;;;;;;12.82;2.90;;;;;;;;;;5037336;28;20021;-72
2022/08/23 09:08:03;;;;;;;8.18;2.60;;;;;;;;;;5038180;28;20040;-72
2022/08/23 09:10:35;;;;;;;10.98;2.70;;;;;;;;;;5037862;28;20033;-72
2022/08/23 09:13:19;;;;;;;8.32;2.72;;;;;;;;;;5039232;28;20029;-73
2022/08/23 09:15:54;;;;;;;11.80;2.15;;;;;;;;;;5039220;28;20095;-73
2022/08/23 09:18:22;;;;;;;13.68;2.95;;;;;;;;;;5041174;28;20104;-72
2022/08/23 09:20:51;;;;;;;11.30;2.50;;;;;;;;;;5038281;28;20028;-73
2022/08/23 09:23:20;;;;;;;6.78;2.70;;;;;;;;;;5038373;28;20025;-72
2022/08/23 09:25:52;;;;;;;13.50;2.60;;;;;;;;;;5037939;28;20086;-74
2022/08/23 09:28:18;;;;;;;11.77;2.95;;;;;;;;;;5035678;28;20025;-73
2022/08/23 09:30:45;;;;;;;7.88;2.80;;;;;;;;;;5036329;28;20022;-72
2022/08/23 09:33:15;;;;;;;9.10;2.70;;;;;;;;;;5038375;28;20025;-72
2022/08/23 09:35:42;;;;;;;12.68;3.90;;;;;;;;;;5036793;28;20108;-73
2022/08/23 09:38:19;;;;;;;17.80;4.40;;;;;;;;;;5035001;28;20025;-72
2022/08/23 09:40:46;;;;;;;10.13;2.80;;;;;;;;;;5035682;28;20026;-72
2022/08/23 09:43:16;;;;;;;11.88;2.42;;;;;;;;;;5019605;28;20076;-73
2022/08/23 09:45:53;;;;;;;11.60;2.47;;;;;;;;;;5035172;28;20204;-72
2022/08/23 09:48:33;;;;;;;8.10;2.42;;;;;;;;;;5034796;28;20529;-74
2022/08/23 09:51:08;;;;;;;14.00;2.80;;;;;;;;;;5045776;28;20533;-72
2022/08/23 09:53:35;;;;;;;8.50;2.40;;;;;;;;;;5022751;28;20077;-73
2022/08/23 09:56:15;;;;;;;7.47;2.50;;;;;;;;;;5034466;28;20083;-71
2022/08/23 09:58:42;;;;;;;11.07;2.22;;;;;;;;;;5034586;28;20026;-72
2022/08/23 10:01:22;;;;;;;11.55;2.40;;;;;;;;;;5034274;28;20025;-72
2022/08/23 10:04:07;;;;;;;8.63;2.30;;;;;;;;;;5035322;28;20021;-72
2022/08/23 10:06:33;;;;;;;9.02;2.58;;;;;;;;;;5036183;28;20037;-72
2022/08/23 10:09:04;;;;;;;14.00;2.78;;;;;;;;;;5036733;28;20140;-72
2022/08/23 10:11:39;;;;;;;6.75;1.95;;;;;;;;;;5035467;28;20029;-72
2022/08/23 10:14:05;;;;;;;9.30;2.33;;;;;;;;;;5034884;28;20022;-71
2022/08/23 10:16:45;;;;;;;7.03;3.60;;;;;;;;;;5036751;28;20139;-72
2022/08/23 10:19:31;;;;;;;16.25;2.25;;;;;;;;;;5040618;28;20105;-71
2022/08/23 10:22:07;;;;;;;5.55;1.83;;;;;;;;;;5021742;28;20048;-73
2022/08/23 10:24:52;;;;;;;5.50;2.13;;;;;;;;;;5043384;28;20047;-76
2022/08/23 10:30:22;;;;;;;8.75;2.00;;;;;;;;;;5034906;28;19913;-71
2022/08/23 10:32:51;;;;;;;7.50;2.10;;;;;;;;;;5033980;28;20037;-73
2022/08/23 10:35:17;;;;;;;7.60;2.22;;;;;;;;;;5037658;28;20105;-71
2022/08/23 10:38:02;;;;;;;4.18;1.75;;;;;;;;;;5033300;28;20127;-72
2022/08/23 10:40:33;;;;;;;6.10;2.00;;;;;;;;;;5027293;28;20442;-72
2022/08/23 10:43:08;;;;;;;14.85;2.40;;;;;;;;;;5039829;28;20014;-71
2022/08/23 10:45:35;;;;;;;15.55;2.75;;;;;;;;;;5048173;28;20928;-73
2022/08/23 10:48:05;;;;;;;4.25;2.22;;;;;;;;;;5051995;28;20032;-73
2022/08/23 10:50:57;;;;;;;7.47;2.17;;;;;;;;;;5052760;28;20021;-72
2022/08/23 10:53:26;;;;;;;5.88;2.15;;;;;;;;;;5055257;28;20029;-72
2022/08/23 10:56:02;;;;;;;10.30;1.98;;;;;;;;;;5055227;28;20440;-72
2022/08/23 10:58:48;;;;;;;4.85;1.67;;;;;;;;;;5040642;28;20136;-72
2022/08/23 11:01:23;;;;;;;9.73;2.03;;;;;;;;;;5056003;28;20072;-73
2022/08/23 11:03:56;;;;;;;11.77;1.80;;;;;;;;;;5054249;28;20035;-71
2022/08/23 11:06:22;;;;;;;5.20;1.90;;;;;;;;;;5036202;28;20147;-70
2022/08/23 11:08:48;;;;;;;4.45;1.75;;;;;;;;;;5059435;28;20032;-70
2022/08/23 11:11:36;;;;;;;5.50;1.65;;;;;;;;;;5057520;28;20025;-73
2022/08/23 11:14:02;;;;;;;2.90;1.50;;;;;;;;;;5053829;28;20078;-72
2022/08/23 11:16:29;;;;;;;13.57;1.83;;;;;;;;;;5050875;28;20033;-72
2022/08/23 11:18:56;;;;;;;8.82;2.17;;;;;;;;;;5036059;28;20105;-71
2022/08/23 11:21:32;;;;;;;13.13;2.75;;;;;;;;;;5051089;28;20029;-72
2022/08/23 11:23:58;;;;;;;10.77;2.30;;;;;;;;;;5054342;28;20017;-72
2022/08/23 11:26:27;;;;;;;3.97;1.33;;;;;;;;;;5050616;28;20032;-72
2022/08/23 11:28:53;;;;;;;6.75;1.63;;;;;;;;;;5051843;28;20021;-73
2022/08/23 11:31:35;;;;;;;7.35;2.05;;;;;;;;;;5057656;28;20029;-71
2022/08/23 11:34:12;;;;;;;7.47;1.63;;;;;;;;;;5052446;28;20013;-72
2022/08/23 11:36:38;;;;;;;9.48;1.50;;;;;;;;;;5057219;28;20029;-72
2022/08/23 11:39:09;;;;;;;7.28;1.70;;;;;;;;;;5050609;28;20446;-71
2022/08/23 11:41:55;;;;;;;7.15;1.88;;;;;;;;;;5053679;28;20025;-72
2022/08/23 11:44:27;;;;;;;10.38;2.40;;;;;;;;;;5045084;28;20032;-72
2022/08/23 11:46:54;;;;;;;5.00;1.70;;;;;;;;;;5058168;28;20020;-71
2022/08/23 11:49:26;;;;;;;6.10;2.15;;;;;;;;;;5060189;28;20028;-72
2022/08/23 11:52:11;;;;;;;5.30;1.58;;;;;;;;;;5058192;28;20025;-73
2022/08/23 11:54:55;;;;;;;4.85;1.20;;;;;;;;;;5056295;28;20067;-72
2022/08/23 11:57:40;;;;;;;5.90;1.60;;;;;;;;;;5036247;28;20474;-71
2022/08/23 12:00:14;;;;;;;8.27;1.60;;;;;;;;;;5052389;28;20040;-73
2022/08/23 12:02:46;;;;;;;3.47;1.63;;;;;;;;;;5059380;28;20033;-70
2022/08/23 12:05:21;;;;;;;5.63;1.45;;;;;;;;;;5059910;28;20154;-72
2022/08/23 12:08:16;;;;;;;3.00;1.60;;;;;;;;;;5060157;28;20032;-72
2022/08/23 12:10:42;;;;;;;;;;;;;;;;;;5055006;28;20478;-72
2022/08/23 12:13:20;;;;;;;5.68;1.65;;;;;;;;;;5052940;28;19952;-73
2022/08/23 12:16:05;;;;;;;4.53;1.30;;;;;;;;;;5054106;28;20024;-71
2022/08/23 12:18:33;;;;;;;5.47;1.48;;;;;;;;;;5053030;28;20393;-72
2022/08/23 12:21:00;;;;;;;3.47;1.92;;;;;;;;;;5055960;28;20117;-73
2022/08/23 12:23:26;;;;;;;6.28;1.70;;;;;;;;;;5053863;28;20033;-71
2022/08/23 12:25:59;;;;;;;5.80;1.33;;;;;;;;;;5053865;28;20466;-74
2022/08/23 12:28:32;;;;;;;4.53;1.50;;;;;;;;;;5055865;28;20036;-74
2022/08/23 12:31:05;;;;;;;5.57;1.50;;;;;;;;;;5053928;28;20099;-72
2022/08/23 12:33:45;;;;;;;4.47;1.40;;;;;;;;;;5053324;28;20053;-71
2022/08/23 12:36:19;;;;;;;5.15;1.45;;;;;;;;;;5052341;28;20028;-72
2022/08/23 12:38:54;;;;;;;4.13;1.40;;;;;;;;;;5054046;28;20024;-73
2022/08/23 12:41:32;;;;;;;4.45;1.23;;;;;;;;;;5051985;28;20154;-72
2022/08/23 12:44:07;;;;;;;8.52;1.13;;;;;;;;;;5052113;28;20025;-72
2022/08/23 12:46:36;;;;;;;6.15;1.55;;;;;;;;;;5034300;28;20052;-72
2022/08/23 12:49:02;;;;;;;4.38;1.70;;;;;;;;;;5052851;28;20052;-72
2022/08/23 12:51:28;;;;;;;6.30;2.90;;;;;;;;;;5053547;28;20017;-72
2022/08/23 12:53:54;;;;;;;7.90;2.17;;;;;;;;;;5051416;28;20074;-72
2022/08/23 12:56:22;;;;;;;7.97;1.70;;;;;;;;;;5051112;28;20090;-71
2022/08/23 12:58:50;;;;;;;5.57;1.60;;;;;;;;;;5051340;28;20032;-73
2022/08/23 13:01:21;;;;;;;4.60;1.38;;;;;;;;;;5052591;28;20047;-72
2022/08/23 13:03:50;;;;;;;8.88;1.20;;;;;;;;;;5055142;28;20505;-72
2022/08/23 13:06:21;;;;;;;4.63;1.38;;;;;;;;;;5055993;28;20158;-72
2022/08/23 13:08:54;;;;;;;9.00;4.72;;;;;;;;;;5060633;28;20021;-72
2022/08/23 13:11:21;;;;;;;2.50;1.30;;;;;;;;;;5056038;28;20036;-72
2022/08/23 13:13:47;;;;;;;6.07;1.50;;;;;;;;;;5055977;28;20009;-73
2022/08/23 13:16:31;;;;;;;6.47;1.60;;;;;;;;;;5055321;28;20051;-72
2022/08/23 13:19:16;;;;;;;4.57;1.88;;;;;;;;;;5055063;28;20045;-72
2022/08/23 13:21:42;;;;;;;7.70;1.80;;;;;;;;;;5054712;28;20025;-72
2022/08/23 13:24:28;;;;;;;9.43;1.88;;;;;;;;;;5054599;28;20025;-72
2022/08/23 13:27:09;;;;;;;8.00;1.30;;;;;;;;;;5054658;28;20128;-72
2022/08/23 13:29:47;;;;;;;5.45;1.58;;;;;;;;;;5055082;28;20154;-72
2022/08/23 13:32:31;;;;;;;6.57;1.67;;;;;;;;;;5059205;28;20032;-72
2022/08/23 13:35:16;;;;;;;8.25;1.50;;;;;;;;;;5061895;28;20021;-72
2022/08/23 13:37:44;;;;;;;2.65;1.27;;;;;;;;;;5056298;28;20055;-74
2022/08/23 13:40:12;;;;;;;5.40;1.75;;;;;;;;;;5057369;28;20707;-71
2022/08/23 13:42:47;;;;;;;4.57;1.40;;;;;;;;;;5062062;28;20035;-73
2022/08/23 13:45:21;;;;;;;6.72;1.88;;;;;;;;;;5037434;28;20159;-73
2022/08/23 13:47:49;;;;;;;8.13;2.35;;;;;;;;;;5055836;28;20039;-74
2022/08/23 13:50:26;;;;;;;5.85;1.83;;;;;;;;;;5058949;28;20028;-74
2022/08/23 13:52:53;;;;;;;5.00;1.70;;;;;;;;;;5040463;28;20115;-73
2022/08/23 13:55:19;;;;;;;4.03;1.35;;;;;;;;;;5057647;28;20043;-72
2022/08/23 13:57:45;;;;;;;7.90;3.10;;;;;;;;;;5057309;28;20131;-73
2022/08/23 14:00:11;;;;;;;5.32;1.45;;;;;;;;;;5054931;28;20504;-75
2022/08/23 14:02:37;;;;;;;6.35;1.83;;;;;;;;;;5055447;28;20029;-74
2022/08/23 14:05:04;;;;;;;6.30;2.65;;;;;;;;;;5055037;28;20453;-71
2022/08/23 14:07:30;;;;;;;4.78;1.75;;;;;;;;;;5055517;28;20394;-74
2022/08/23 14:09:56;;;;;;;9.00;3.88;;;;;;;;;;5055406;28;20028;-75
2022/08/23 14:12:24;;;;;;;8.98;5.03;;;;;;;;;;5053650;28;20032;-73
2022/08/23 14:14:50;;;;;;;9.05;1.90;;;;;;;;;;5053802;28;20024;-73
2022/08/23 14:17:16;;;;;;;6.25;1.80;;;;;;;;;;5054064;28;20076;-74
2022/08/23 14:19:45;;;;;;;3.97;1.98;;;;;;;;;;5054612;28;20466;-74
2022/08/23 14:22:11;;;;;;;7.85;2.10;;;;;;;;;;5054470;28;20049;-73
2022/08/23 14:24:37;;;;;;;6.95;1.83;;;;;;;;;;5054255;28;20028;-73
2022/08/23 14:27:03;;;;;;;7.45;1.95;;;;;;;;;;5054292;28;20025;-72
2022/08/23 14:29:29;;;;;;;4.82;1.88;;;;;;;;;;5054841;28;20077;-74
2022/08/23 14:31:56;;;;;;;5.72;1.58;;;;;;;;;;5036084;28;20445;-74
2022/08/23 14:34:23;;;;;;;7.28;1.60;;;;;;;;;;5053490;28;20021;-72
2022/08/23 14:36:50;;;;;;;6.72;2.03;;;;;;;;;;5053053;28;20029;-72
2022/08/23 14:39:16;;;;;;;4.68;2.38;;;;;;;;;;5052519;28;20091;-73
2022/08/23 14:41:42;;;;;;;11.07;2.30;;;;;;;;;;5052569;28;20029;-73
2022/08/23 14:44:08;;;;;;;8.93;1.83;;;;;;;;;;5052891;28;20630;-72
2022/08/23 14:46:34;;;;;;;3.90;1.80;;;;;;;;;;5052644;28;20031;-73
2022/08/23 14:49:00;;;;;;;4.85;1.73;;;;;;;;;;5052801;28;20052;-72
2022/08/23 14:51:31;;;;;;;5.25;1.83;;;;;;;;;;5052530;28;20017;-72
2022/08/23 14:53:56;;;;;;;6.05;1.45;;;;;;;;;;5035085;28;20029;-72
2022/08/23 14:56:23;;;;;;;3.70;1.80;;;;;;;;;;5052511;28;20070;-73
2022/08/23 14:58:50;;;;;;;6.78;1.58;;;;;;;;;;5053374;28;20048;-72
2022/08/23 15:01:17;;;;;;;5.85;1.70;;;;;;;;;;5036201;28;20021;-72